Time;durP1;ratioP1;P1;durP2;ratioP2;P2;SDS_P1;SDS_P2;PMS_P1;PMS_P2;Temp;Humidity;BMP_temperature;BMP_pressure;BME280_temperature;BME280_humidity;BME280_pressure;Samples;Min_cycle;Max_cycle;Signal;HPM_P1;HPM_P2
2021/03/28 00:00:12;;;;;;;1999.90;999.90;;;7.00;99.70;;;;;;5063094;28;20283;-70
2021/03/28 00:02:52;;;;;;;1999.90;999.90;;;7.00;99.80;;;;;;5060480;28;20057;-70
2021/03/28 00:05:22;;;;;;;1999.90;999.90;;;7.00;99.90;;;;;;5060265;28;20459;-71
2021/03/28 00:07:49;;;;;;;;;;;7.00;99.20;;;;;;5058338;28;20061;-70
2021/03/28 00:10:44;;;;;;;1999.90;999.90;;;7.10;99.90;;;;;;5060273;28;19927;-71
2021/03/28 00:13:15;;;;;;;1999.90;999.90;;;7.10;99.80;;;;;;5050623;28;20060;-70
2021/03/28 00:16:00;;;;;;;1999.90;999.90;;;7.10;99.90;;;;;;5063815;28;20055;-71
2021/03/28 00:18:55;;;;;;;1999.90;999.90;;;7.10;99.90;;;;;;5065397;28;20048;-70
2021/03/28 00:21:25;;;;;;;1999.90;999.90;;;7.10;99.90;;;;;;5066668;28;20044;-70
2021/03/28 00:24:14;;;;;;;1999.90;999.90;;;7.10;99.90;;;;;;5061626;28;20043;-71
2021/03/28 00:26:46;;;;;;;;;;;7.10;99.90;;;;;;5055567;28;20041;-70
2021/03/28 00:29:22;;;;;;;1999.90;999.90;;;7.10;99.90;;;;;;5059402;28;20039;-71
2021/03/28 00:32:06;;;;;;;1999.90;999.90;;;7.10;99.90;;;;;;5064558;28;20495;-71
2021/03/28 00:34:40;;;;;;;1999.90;999.90;;;7.10;99.90;;;;;;5058287;28;20055;-71
2021/03/28 00:37:09;;;;;;;1999.90;999.90;;;7.10;99.90;;;;;;5061275;28;20044;-71
2021/03/28 00:39:41;;;;;;;1999.90;999.90;;;7.10;99.90;;;;;;5055770;28;20040;-71
2021/03/28 00:42:21;;;;;;;1999.90;999.90;;;7.10;99.90;;;;;;5058281;28;20047;-71
2021/03/28 00:45:13;;;;;;;1999.90;999.90;;;7.10;99.90;;;;;;5057005;28;20060;-71
2021/03/28 00:47:43;;;;;;;1999.90;999.90;;;7.10;99.90;;;;;;5065739;28;20072;-71
2021/03/28 00:50:22;;;;;;;1999.90;999.90;;;7.10;99.90;;;;;;5064057;28;20369;-70
2021/03/28 00:53:11;;;;;;;1999.90;999.90;;;7.10;99.90;;;;;;5067751;28;20132;-71
2021/03/28 00:55:40;;;;;;;1999.90;999.90;;;7.10;99.90;;;;;;5068592;28;20052;-71
2021/03/28 00:58:19;;;;;;;1999.90;999.90;;;7.10;99.90;;;;;;5064980;28;20049;-71
2021/03/28 01:01:13;;;;;;;1999.90;999.90;;;7.00;99.90;;;;;;5064086;28;20105;-70
2021/03/28 01:04:18;;;;;;;1999.90;999.90;;;7.00;99.90;;;;;;5063010;28;20049;-70
2021/03/28 01:07:03;;;;;;;1999.90;999.90;;;7.00;99.90;;;;;;5060643;28;20045;-71
2021/03/28 01:09:57;;;;;;;1999.90;999.90;;;6.90;99.90;;;;;;5065049;28;20048;-71
2021/03/28 01:12:52;;;;;;;1999.90;999.90;;;6.90;99.90;;;;;;5077327;28;20048;-70
2021/03/28 01:15:59;;;;;;;1999.90;999.90;;;6.80;99.90;;;;;;5063362;28;20060;-70
2021/03/28 01:18:34;;;;;;;1999.90;999.90;;;6.80;99.90;;;;;;5069914;28;20361;-71
2021/03/28 01:21:16;;;;;;;1999.90;999.90;;;6.70;99.90;;;;;;5068589;28;20148;-71
2021/03/28 01:23:44;;;;;;;1999.90;999.90;;;6.70;99.90;;;;;;5067205;28;20049;-70
2021/03/28 01:26:32;;;;;;;1999.90;999.90;;;6.70;99.90;;;;;;5067131;28;20130;-71
2021/03/28 01:29:17;;;;;;;1999.90;999.90;;;6.70;99.90;;;;;;5066693;28;20064;-71
2021/03/28 01:31:53;;;;;;;1999.90;999.90;;;6.70;99.90;;;;;;5064599;28;20078;-70
2021/03/28 01:34:26;;;;;;;1999.90;999.90;;;6.60;99.90;;;;;;5066025;28;20040;-70
2021/03/28 01:37:12;;;;;;;1999.90;999.90;;;6.60;99.90;;;;;;5062614;28;20053;-70
2021/03/28 01:39:44;;;;;;;1999.90;999.90;;;6.60;99.90;;;;;;5064101;28;20059;-70
2021/03/28 01:42:26;;;;;;;1999.90;999.90;;;6.60;99.90;;;;;;5067352;28;20053;-70
2021/03/28 01:44:59;;;;;;;1999.90;999.90;;;6.50;99.90;;;;;;5058369;28;20048;-71
2021/03/28 01:48:02;;;;;;;1999.90;999.90;;;6.50;99.90;;;;;;5069414;28;20048;-70
2021/03/28 01:50:44;;;;;;;1999.90;999.90;;;6.50;99.90;;;;;;5067828;28;20052;-70
2021/03/28 01:53:46;;;;;;;1999.90;999.90;;;6.50;99.90;;;;;;5068746;28;20051;-70
2021/03/28 01:56:44;;;;;;;1999.90;999.90;;;6.50;99.90;;;;;;5063161;28;20097;-70
2021/03/28 01:59:34;;;;;;;1999.90;999.90;;;6.50;99.90;;;;;;5059103;28;20544;-71
2021/03/28 02:02:33;;;;;;;1999.90;999.90;;;6.50;99.90;;;;;;5063645;28;20052;-70
2021/03/28 02:05:11;;;;;;;1999.90;999.90;;;6.50;99.90;;;;;;5063210;28;20127;-70
2021/03/28 02:08:08;;;;;;;1999.90;999.90;;;6.60;99.90;;;;;;5065850;28;20119;-70
2021/03/28 02:11:02;;;;;;;1999.90;999.90;;;6.60;99.90;;;;;;5068293;28;20084;-71
2021/03/28 02:13:47;;;;;;;1999.90;999.90;;;6.60;99.90;;;;;;5057794;28;20048;-71
2021/03/28 02:16:32;;;;;;;1999.90;999.90;;;6.60;99.90;;;;;;5059167;28;20124;-71
2021/03/28 02:19:17;;;;;;;1999.90;999.90;;;6.60;99.90;;;;;;5066438;28;20049;-70
2021/03/28 02:21:59;;;;;;;1999.90;999.90;;;6.50;99.90;;;;;;5066007;28;20442;-70
2021/03/28 02:24:38;;;;;;;1999.90;999.90;;;6.50;99.90;;;;;;5062333;28;20050;-70
2021/03/28 02:27:10;;;;;;;1999.90;999.90;;;6.50;99.90;;;;;;5068840;28;20099;-70
2021/03/28 02:29:42;;;;;;;1999.90;999.90;;;6.60;99.90;;;;;;5058386;28;20044;-70
2021/03/28 02:32:46;;;;;;;1999.90;999.90;;;6.50;99.90;;;;;;5066848;28;20131;-70
2021/03/28 02:35:46;;;;;;;1999.90;999.90;;;6.50;99.90;;;;;;5064626;28;20496;-70
2021/03/28 02:38:12;;;;;;;1999.90;999.90;;;6.50;99.90;;;;;;5064629;28;20044;-70
2021/03/28 02:40:57;;;;;;;1999.90;999.90;;;6.50;99.90;;;;;;5064364;28;20056;-70
2021/03/28 02:43:46;;;;;;;1999.90;999.90;;;6.50;99.90;;;;;;5066819;28;20052;-70
2021/03/28 02:46:24;;;;;;;1999.90;999.90;;;6.50;99.90;;;;;;5064649;28;20135;-70
2021/03/28 02:49:00;;;;;;;1999.90;999.90;;;6.50;99.90;;;;;;5060780;28;20040;-70
2021/03/28 02:51:36;;;;;;;1999.90;999.90;;;6.50;99.90;;;;;;5066028;28;20075;-70
2021/03/28 02:54:26;;;;;;;1999.90;999.90;;;6.40;99.90;;;;;;5065379;28;20047;-70
2021/03/28 02:57:04;;;;;;;1999.90;999.90;;;6.40;99.90;;;;;;5064870;28;20083;-70
2021/03/28 03:00:07;;;;;;;1999.90;999.90;;;6.40;99.90;;;;;;5064666;28;20504;-70
2021/03/28 03:02:54;;;;;;;1999.90;999.90;;;6.40;99.90;;;;;;5067995;28;20531;-70
2021/03/28 03:05:44;;;;;;;1999.90;999.90;;;6.40;99.90;;;;;;5060666;28;20053;-70
2021/03/28 03:08:20;;;;;;;1999.90;999.90;;;6.40;99.90;;;;;;5063002;28;20114;-70
2021/03/28 03:11:17;;;;;;;1999.90;999.90;;;6.40;99.90;;;;;;5061880;28;20375;-70
2021/03/28 03:13:54;;;;;;;1999.90;999.90;;;6.30;99.90;;;;;;5064128;28;20410;-71
2021/03/28 03:16:31;;;;;;;1999.90;999.90;;;6.30;99.90;;;;;;5063870;28;20063;-71
2021/03/28 03:19:15;;;;;;;1999.90;999.90;;;6.30;99.90;;;;;;5059624;28;20055;-70
2021/03/28 03:22:11;;;;;;;1999.90;999.90;;;6.40;99.90;;;;;;5062230;28;20048;-70
2021/03/28 03:25:31;;;;;;;1999.90;999.90;;;6.30;99.90;;;;;;5061321;28;20048;-71
2021/03/28 03:28:07;;;;;;;1999.90;999.90;;;6.30;99.90;;;;;;5043554;28;20087;-70
2021/03/28 03:30:50;;;;;;;1999.90;999.90;;;6.30;99.90;;;;;;5044651;28;20041;-70
2021/03/28 03:33:54;;;;;;;1999.90;999.90;;;6.30;99.90;;;;;;5057153;28;20047;-70
2021/03/28 03:36:58;;;;;;;1999.90;999.90;;;6.40;99.90;;;;;;5062779;28;20123;-70
2021/03/28 03:39:36;;;;;;;1999.90;999.90;;;6.40;99.90;;;;;;5060888;28;20041;-70
2021/03/28 03:42:29;;;;;;;1999.90;999.90;;;6.50;99.90;;;;;;5060253;28;20041;-70
2021/03/28 03:45:17;;;;;;;1999.90;999.90;;;6.50;99.90;;;;;;5061353;28;20127;-71
2021/03/28 03:47:57;;;;;;;1999.90;999.90;;;6.50;99.90;;;;;;5063732;28;20550;-71
2021/03/28 03:50:45;;;;;;;1999.90;999.90;;;6.50;99.90;;;;;;5060812;28;20320;-70
2021/03/28 03:53:16;;;;;;;1999.90;999.90;;;6.50;99.90;;;;;;5066322;28;20066;-71
2021/03/28 03:56:14;;;;;;;1999.90;999.90;;;6.60;99.90;;;;;;5063141;28;20053;-70
2021/03/28 03:59:13;;;;;;;1999.90;999.90;;;6.60;99.90;;;;;;5057832;28;20045;-70
2021/03/28 04:02:01;;;;;;;1999.90;999.90;;;6.60;99.90;;;;;;5060182;28;20045;-70
2021/03/28 04:04:55;;;;;;;1999.90;999.90;;;6.70;99.90;;;;;;5065650;28;20516;-70
2021/03/28 04:07:48;;;;;;;1999.90;999.90;;;6.70;99.90;;;;;;5063814;28;20124;-70
2021/03/28 04:10:23;;;;;;;1999.90;999.90;;;6.70;99.90;;;;;;5058961;28;20499;-70
2021/03/28 04:13:14;;;;;;;1999.90;999.90;;;6.70;99.90;;;;;;5063243;28;20059;-70
2021/03/28 04:16:02;;;;;;;1999.90;999.90;;;6.70;99.90;;;;;;5062549;28;20048;-71
2021/03/28 04:18:53;;;;;;;1999.90;999.90;;;6.70;99.90;;;;;;5060805;28;20080;-71
2021/03/28 04:21:28;;;;;;;1999.90;999.90;;;6.70;99.90;;;;;;5060217;28;20468;-71
2021/03/28 04:24:13;;;;;;;1999.90;999.90;;;6.70;99.90;;;;;;5062994;28;20080;-70
2021/03/28 04:27:09;;;;;;;1999.90;999.90;;;6.80;99.90;;;;;;5068466;28;20483;-70
2021/03/28 04:29:36;;;;;;;1999.90;999.90;;;6.70;99.90;;;;;;5065316;28;20045;-70
2021/03/28 04:32:14;;;;;;;1999.90;999.90;;;6.70;99.90;;;;;;5070495;28;20041;-71
2021/03/28 04:35:14;;;;;;;1999.90;999.90;;;6.70;99.90;;;;;;5068884;28;20045;-70
2021/03/28 04:37:59;;;;;;;1999.90;999.90;;;6.70;99.90;;;;;;5070589;28;20036;-70
2021/03/28 04:40:40;;;;;;;1999.90;999.90;;;6.70;99.90;;;;;;5070557;28;20135;-71
2021/03/28 04:43:15;;;;;;;1999.90;999.90;;;6.70;99.90;;;;;;5062066;28;20048;-71
2021/03/28 04:45:59;;;;;;;1999.90;999.90;;;6.70;99.90;;;;;;5064799;28;20048;-68
2021/03/28 04:48:33;;;;;;;1999.90;999.90;;;6.70;99.90;;;;;;5064929;28;20579;-68
2021/03/28 04:51:15;;;;;;;1999.90;999.90;;;6.80;99.90;;;;;;5063926;28;20044;-69
2021/03/28 04:53:56;;;;;;;1999.90;999.90;;;6.80;99.90;;;;;;5064293;28;20215;-68
2021/03/28 04:56:37;;;;;;;1999.90;999.90;;;6.80;99.90;;;;;;5070867;28;20408;-69
2021/03/28 04:59:09;;;;;;;1999.90;999.90;;;6.80;99.90;;;;;;5062321;28;20601;-69
2021/03/28 05:01:51;;;;;;;1999.90;999.90;;;6.80;99.90;;;;;;5066904;28;20045;-69
2021/03/28 05:04:46;;;;;;;1999.90;999.90;;;6.80;99.90;;;;;;5064563;28;20088;-68
2021/03/28 05:07:37;;;;;;;1999.90;999.90;;;6.80;99.90;;;;;;5067917;28;20468;-69
2021/03/28 05:10:32;;;;;;;1999.90;999.90;;;6.80;99.90;;;;;;5070125;28;20505;-68
2021/03/28 05:13:36;;;;;;;1999.90;999.90;;;6.80;99.90;;;;;;5064662;28;20123;-69
2021/03/28 05:16:44;;;;;;;1999.90;999.90;;;6.80;99.90;;;;;;5053764;28;20063;-68
2021/03/28 05:19:13;;;;;;;1999.90;999.90;;;6.90;99.90;;;;;;5065681;28;20045;-68
2021/03/28 05:22:10;;;;;;;1999.90;999.90;;;6.90;99.90;;;;;;5059738;28;20045;-68
2021/03/28 05:25:28;;;;;;;1999.90;999.90;;;6.90;99.90;;;;;;5077414;28;20048;-68
2021/03/28 05:28:13;;;;;;;1999.90;999.90;;;6.90;99.90;;;;;;5041756;28;20055;-68
2021/03/28 05:31:18;;;;;;;1999.90;999.90;;;6.90;99.90;;;;;;5048748;28;20483;-68
2021/03/28 05:34:23;;;;;;;1999.90;999.90;;;6.90;99.90;;;;;;5035717;28;20070;-68
2021/03/28 05:36:55;;;;;;;1999.90;999.90;;;6.90;99.90;;;;;;5046445;28;20052;-68
2021/03/28 05:39:43;;;;;;;1999.90;999.90;;;6.80;99.90;;;;;;5045175;28;20517;-69
2021/03/28 05:42:28;;;;;;;1999.90;999.90;;;6.90;99.90;;;;;;5047204;28;20192;-69
2021/03/28 05:45:13;;;;;;;1999.90;999.90;;;6.90;99.90;;;;;;5053898;28;20120;-68
2021/03/28 05:48:14;;;;;;;1999.90;999.90;;;6.90;99.90;;;;;;5062387;28;20045;-68
2021/03/28 05:51:13;;;;;;;1999.90;999.90;;;6.90;99.90;;;;;;5047215;28;20447;-68
2021/03/28 05:53:54;;;;;;;1999.90;999.90;;;6.90;99.90;;;;;;5061334;28;20048;-68
2021/03/28 05:56:42;;;;;;;1999.90;999.90;;;7.00;99.90;;;;;;5061556;28;20136;-68
2021/03/28 05:59:22;;;;;;;1999.90;999.90;;;7.00;99.90;;;;;;5083400;28;20166;-68
2021/03/28 06:02:01;;;;;;;1999.90;999.90;;;7.10;99.90;;;;;;5055174;28;20427;-68
2021/03/28 06:04:39;;;;;;;1999.90;999.90;;;7.10;99.90;;;;;;5051310;28;20059;-68
2021/03/28 06:07:24;;;;;;;1999.90;999.90;;;7.20;99.90;;;;;;5064621;28;20036;-68
2021/03/28 06:10:25;;;;;;;1999.90;999.90;;;7.20;99.90;;;;;;5063239;28;20137;-68
2021/03/28 06:13:00;;;;;;;1999.90;999.90;;;7.30;99.90;;;;;;5063046;28;20052;-68
2021/03/28 06:15:32;;;;;;;1999.90;999.90;;;7.40;99.90;;;;;;5066242;28;20144;-68
2021/03/28 06:18:29;;;;;;;1999.90;999.90;;;7.40;99.90;;;;;;5065633;28;20435;-69
2021/03/28 06:21:10;;;;;;;1999.90;999.90;;;7.50;99.90;;;;;;5065224;28;20072;-68
2021/03/28 06:23:49;;;;;;;1999.90;999.90;;;7.50;99.90;;;;;;5062243;28;20203;-69
2021/03/28 06:26:39;;;;;;;1999.90;999.90;;;7.50;99.90;;;;;;5066394;28;20052;-68
2021/03/28 06:36:53;;;;;;;1999.90;999.90;;;7.60;99.90;;;;;;5066959;28;20923;-68
2021/03/28 06:39:38;;;;;;;1999.90;999.90;;;7.60;99.90;;;;;;5066609;28;20044;-68
2021/03/28 06:42:12;;;;;;;1999.90;999.90;;;7.60;99.90;;;;;;5061964;28;20048;-68
2021/03/28 06:45:17;;;;;;;1999.90;999.90;;;7.60;99.90;;;;;;5067223;28;20418;-68
2021/03/28 06:48:01;;;;;;;1999.90;999.90;;;7.60;99.90;;;;;;5091833;28;20060;-68
2021/03/28 06:50:36;;;;;;;1999.90;999.90;;;7.70;99.90;;;;;;5059170;28;20409;-68
2021/03/28 06:53:23;;;;;;;1999.90;999.90;;;7.80;99.90;;;;;;5067375;28;20139;-69
2021/03/28 06:56:17;;;;;;;1999.90;999.90;;;7.80;99.90;;;;;;5062073;28;20121;-68
2021/03/28 06:59:11;;;;;;;1999.90;999.90;;;7.90;99.90;;;;;;5074310;28;20794;-68
2021/03/28 07:01:40;;;;;;;1999.90;999.90;;;7.90;99.90;;;;;;5067026;28;20049;-69
2021/03/28 07:04:42;;;;;;;1999.90;999.90;;;7.90;99.90;;;;;;5066206;28;20048;-68
2021/03/28 07:07:35;;;;;;;1999.90;999.90;;;7.90;99.90;;;;;;5061115;28;20076;-68
2021/03/28 07:10:13;;;;;;;1999.90;999.90;;;7.90;99.90;;;;;;5064136;28;20040;-69
2021/03/28 07:13:19;;;;;;;1999.90;999.90;;;7.90;99.90;;;;;;5064542;28;20072;-68
2021/03/28 07:16:10;;;;;;;1999.90;999.90;;;8.00;99.90;;;;;;5066415;28;20045;-69
2021/03/28 07:18:57;;;;;;;1999.90;999.90;;;8.10;99.90;;;;;;5088898;28;20131;-68
2021/03/28 07:21:33;;;;;;;1999.90;999.90;;;8.20;99.90;;;;;;5088947;28;20135;-68
2021/03/28 07:24:44;;;;;;;1999.90;999.90;;;8.30;99.90;;;;;;5064929;28;20057;-68
2021/03/28 07:27:38;;;;;;;1999.90;999.90;;;8.40;99.90;;;;;;5061195;28;20052;-69
2021/03/28 07:30:19;;;;;;;1999.90;999.90;;;8.50;99.90;;;;;;5065855;28;20036;-68
2021/03/28 07:33:23;;;;;;;1999.90;999.90;;;8.50;99.90;;;;;;5062805;28;20048;-68
2021/03/28 07:36:24;;;;;;;1999.90;999.90;;;8.60;99.90;;;;;;5064744;28;20044;-68
2021/03/28 07:39:03;;;;;;;1999.90;999.90;;;8.80;99.90;;;;;;5062107;28;20056;-68
2021/03/28 07:41:48;;;;;;;1999.90;999.90;;;9.00;99.90;;;;;;5066244;28;20041;-69
2021/03/28 07:44:44;;;;;;;1999.90;999.90;;;9.10;99.90;;;;;;5063485;28;20127;-69
2021/03/28 07:47:50;;;;;;;1999.90;999.90;;;9.20;99.90;;;;;;5062933;28;20070;-69
2021/03/28 07:50:50;;;;;;;1999.90;999.90;;;9.20;99.90;;;;;;5061185;28;20059;-68
2021/03/28 07:53:41;;;;;;;1999.90;999.90;;;9.30;99.90;;;;;;5066099;28;20048;-68
2021/03/28 07:56:14;;;;;;;1999.90;999.90;;;9.50;99.90;;;;;;5066624;28;20044;-69
2021/03/28 07:58:56;;;;;;;1999.90;999.90;;;9.60;99.90;;;;;;5066646;28;20083;-68
2021/03/28 08:01:42;;;;;;;1999.90;999.90;;;9.70;99.90;;;;;;5077100;28;20450;-68
2021/03/28 08:04:21;;;;;;;1999.90;999.90;;;9.70;99.90;;;;;;5066780;28;20132;-71
2021/03/28 08:07:06;;;;;;;;;;;9.70;99.90;;;;;;5066757;28;20054;-68
2021/03/28 08:09:53;;;;;;;1999.90;999.90;;;9.70;99.90;;;;;;5065442;28;19920;-68
2021/03/28 08:12:57;;;;;;;1999.90;999.90;;;9.80;99.90;;;;;;5062207;28;20058;-69
2021/03/28 08:16:09;;;;;;;1999.90;999.90;;;9.90;99.90;;;;;;5067863;28;20052;-69
2021/03/28 08:19:00;;;;;;;1999.90;999.90;;;10.00;99.90;;;;;;5064840;28;20044;-69
2021/03/28 08:21:51;;;;;;;1999.90;999.90;;;10.00;99.90;;;;;;5070030;28;20129;-68
2021/03/28 08:24:43;;;;;;;1999.90;999.90;;;10.10;99.90;;;;;;5065212;28;20826;-69
2021/03/28 08:27:29;;;;;;;1999.90;999.90;;;10.10;99.90;;;;;;5066597;28;20040;-69
2021/03/28 08:30:17;;;;;;;1999.90;999.90;;;10.10;99.90;;;;;;5063684;28;20757;-69
2021/03/28 08:33:02;;;;;;;1999.90;999.90;;;10.20;99.90;;;;;;5089166;28;20511;-68
2021/03/28 08:35:38;;;;;;;1999.90;999.90;;;10.30;99.90;;;;;;5065033;28;20132;-69
2021/03/28 08:38:08;;;;;;;1999.90;999.90;;;10.30;99.90;;;;;;5062317;28;20484;-68
2021/03/28 08:41:30;;;;;;;1999.90;999.90;;;10.40;99.90;;;;;;5065537;28;20515;-68
2021/03/28 08:44:16;;;;;;;1999.90;999.90;;;10.50;99.90;;;;;;5040324;28;20055;-69
2021/03/28 08:47:10;;;;;;;1999.90;999.90;;;10.50;99.90;;;;;;5047576;28;20541;-68
2021/03/28 08:50:03;;;;;;;1999.90;999.90;;;10.60;99.90;;;;;;5050775;28;20484;-69
2021/03/28 08:53:14;;;;;;;1999.90;999.90;;;10.80;99.90;;;;;;5055879;28;20543;-69
2021/03/28 08:56:18;;;;;;;1999.90;999.90;;;11.00;99.90;;;;;;5039752;28;20102;-69
2021/03/28 08:59:04;;;;;;;1999.90;999.90;;;11.10;99.90;;;;;;5042198;28;20044;-68
2021/03/28 09:01:34;;;;;;;1999.90;999.90;;;11.10;99.90;;;;;;5042578;28;20128;-68
2021/03/28 09:04:00;;;;;;;1999.90;999.90;;;11.20;99.90;;;;;;5040850;28;20133;-69
2021/03/28 09:06:52;;;;;;;1999.90;999.90;;;11.30;99.90;;;;;;5042288;28;20059;-69
2021/03/28 09:09:53;;;;;;;1999.90;999.90;;;11.40;99.90;;;;;;5042351;28;21047;-68
2021/03/28 09:12:39;;;;;;;1999.90;999.90;;;11.50;99.90;;;;;;5045358;28;20399;-69
2021/03/28 09:15:31;;;;;;;1999.90;999.90;;;11.60;99.90;;;;;;5042996;28;20622;-68
2021/03/28 09:18:35;;;;;;;1999.90;999.90;;;11.70;99.90;;;;;;5054479;28;20044;-69
2021/03/28 09:21:41;;;;;;;1999.90;999.90;;;11.70;99.90;;;;;;5054837;28;20149;-69
2021/03/28 09:24:34;;;;;;;1999.90;999.90;;;11.80;99.90;;;;;;5058608;28;20041;-68
2021/03/28 09:39:15;;;;;;;1999.90;999.90;;;11.90;98.80;;;;;;5057444;28;20595;-69
2021/03/28 09:42:03;;;;;;;1999.90;999.90;;;11.80;98.30;;;;;;5064482;28;20056;-68
2021/03/28 09:44:54;;;;;;;1999.90;999.90;;;11.80;98.20;;;;;;5068120;28;20052;-69
2021/03/28 09:48:02;;;;;;;1999.90;999.90;;;11.70;98.80;;;;;;5062372;28;20388;-68
2021/03/28 09:50:59;;;;;;;1999.90;999.90;;;11.70;98.50;;;;;;5066404;28;20479;-68
2021/03/28 09:53:50;;;;;;;1999.90;999.90;;;11.80;98.80;;;;;;5062653;28;20143;-68
2021/03/28 09:56:48;;;;;;;1999.90;999.90;;;11.80;97.70;;;;;;5064785;28;20044;-69
2021/03/28 09:59:27;;;;;;;1999.90;999.90;;;11.80;97.40;;;;;;5079940;28;20472;-69
2021/03/28 10:02:17;;;;;;;1999.90;999.90;;;11.70;97.20;;;;;;5064466;28;20062;-68
2021/03/28 10:05:12;;;;;;;1999.90;999.90;;;11.70;98.40;;;;;;5066234;28;20055;-69
2021/03/28 10:07:40;;;;;;;1999.90;999.90;;;11.60;98.40;;;;;;5065241;28;20083;-69
2021/03/28 10:10:19;;;;;;;1999.90;999.90;;;11.70;99.60;;;;;;5066687;28;20044;-69
2021/03/28 10:13:05;;;;;;;1999.90;999.90;;;11.70;98.40;;;;;;5064076;28;20139;-69
2021/03/28 10:15:48;;;;;;;1999.90;999.90;;;11.60;98.80;;;;;;5045272;28;22237;-70
2021/03/28 10:18:28;;;;;;;1999.90;999.90;;;11.60;99.00;;;;;;5066604;28;20451;-68
2021/03/28 10:21:15;;;;;;;1999.90;999.90;;;11.60;98.90;;;;;;5060430;28;20422;-69
2021/03/28 10:24:01;;;;;;;1999.90;999.90;;;11.60;99.50;;;;;;5064787;28;20500;-68
2021/03/28 10:26:43;;;;;;;1999.90;999.90;;;11.70;99.20;;;;;;5063080;28;20424;-69
2021/03/28 10:30:01;;;;;;;1999.90;999.90;;;11.70;99.00;;;;;;5060413;28;20043;-69
2021/03/28 10:32:48;;;;;;;1999.90;999.90;;;11.60;98.60;;;;;;5038542;28;20072;-68
2021/03/28 10:35:55;;;;;;;1999.90;999.90;;;11.60;99.40;;;;;;5054026;28;20045;-69
2021/03/28 10:38:24;;;;;;;1999.90;999.90;;;11.60;99.40;;;;;;5062241;28;20044;-69
2021/03/28 10:40:57;;;;;;;1999.90;999.90;;;11.50;98.90;;;;;;5065457;28;21468;-69
2021/03/28 10:43:54;;;;;;;1999.90;999.90;;;11.50;98.90;;;;;;5064959;28;20102;-69
2021/03/28 10:46:32;;;;;;;1999.90;999.90;;;11.40;99.20;;;;;;5064426;28;20530;-69
2021/03/28 10:49:16;;;;;;;1999.90;999.90;;;11.40;99.60;;;;;;5063544;28;20044;-68
2021/03/28 10:52:11;;;;;;;1999.90;999.90;;;11.30;99.70;;;;;;5074803;28;20037;-69
2021/03/28 10:55:20;;;;;;;1999.90;999.90;;;11.30;99.90;;;;;;5052316;28;20170;-69
2021/03/28 10:58:04;;;;;;;1999.90;999.90;;;11.30;99.90;;;;;;5050642;28;20997;-69
2021/03/28 11:01:01;;;;;;;1999.90;999.90;;;11.30;99.90;;;;;;5053148;28;20056;-68
2021/03/28 11:04:18;;;;;;;1999.90;999.90;;;11.30;99.90;;;;;;5052058;28;20049;-68
2021/03/28 11:07:03;;;;;;;1999.90;999.90;;;11.30;99.90;;;;;;5046089;28;20462;-68
2021/03/28 11:09:50;;;;;;;1999.90;999.90;;;11.20;99.90;;;;;;5051514;28;20052;-69
2021/03/28 11:12:35;;;;;;;1999.90;999.90;;;11.20;99.90;;;;;;5049555;28;20067;-69
2021/03/28 11:15:32;;;;;;;1999.90;999.90;;;11.20;99.90;;;;;;5053610;28;20098;-68
2021/03/28 11:18:18;;;;;;;1999.90;999.90;;;11.20;99.90;;;;;;5045173;28;20048;-69
2021/03/28 11:21:01;;;;;;;1999.90;999.90;;;11.20;99.90;;;;;;5052599;28;20104;-68
2021/03/28 11:23:48;;;;;;;1999.90;999.90;;;11.20;99.90;;;;;;5051051;28;20633;-68
2021/03/28 11:26:33;;;;;;;1999.90;999.90;;;11.20;99.90;;;;;;5055254;28;20129;-69
2021/03/28 11:29:20;;;;;;;1999.90;999.90;;;11.20;99.90;;;;;;5047807;28;21340;-68
2021/03/28 11:32:23;;;;;;;1999.90;999.90;;;11.20;99.90;;;;;;5052597;28;20044;-68
2021/03/28 11:34:58;;;;;;;1999.90;999.90;;;11.20;99.90;;;;;;5044807;28;20170;-69
2021/03/28 11:37:48;;;;;;;1999.90;999.90;;;11.30;99.90;;;;;;5051275;28;20056;-69
2021/03/28 11:40:17;;;;;;;1999.90;999.90;;;11.30;99.90;;;;;;5044943;28;20052;-68
2021/03/28 11:42:49;;;;;;;1999.90;999.90;;;11.40;99.90;;;;;;5050603;28;20062;-68
2021/03/28 11:46:03;;;;;;;1999.90;999.90;;;11.30;99.90;;;;;;5048699;28;20064;-69
2021/03/28 11:49:01;;;;;;;1999.90;999.90;;;11.40;99.90;;;;;;5023694;28;20056;-69
2021/03/28 11:51:33;;;;;;;1999.90;999.90;;;11.50;99.90;;;;;;5040384;28;20488;-69
2021/03/28 11:54:09;;;;;;;1999.90;999.90;;;11.60;99.90;;;;;;5052809;28;20048;-69
2021/03/28 11:57:03;;;;;;;1999.90;999.90;;;11.60;99.90;;;;;;5050586;28;20565;-69
2021/03/28 11:59:53;;;;;;;1999.90;999.90;;;11.60;99.90;;;;;;5048341;28;20053;-69
2021/03/28 12:02:25;;;;;;;1999.90;999.90;;;11.70;99.90;;;;;;5053204;28;20052;-69
2021/03/28 12:04:58;;;;;;;1999.90;999.90;;;11.70;99.90;;;;;;5051264;28;20385;-68
2021/03/28 12:07:25;;;;;;;1999.90;999.90;;;11.70;99.90;;;;;;5053593;28;20409;-69
2021/03/28 12:10:29;;;;;;;1999.90;999.90;;;11.70;99.90;;;;;;5053500;28;20071;-68
2021/03/28 12:13:30;;;;;;;1999.90;999.90;;;11.70;99.90;;;;;;5054821;28;20052;-69
2021/03/28 12:16:00;;;;;;;1999.90;999.90;;;11.60;99.90;;;;;;5053507;28;20566;-69
2021/03/28 12:18:28;;;;;;;1999.90;999.90;;;11.60;99.90;;;;;;5052239;28;20051;-69
2021/03/28 12:21:03;;;;;;;1999.90;999.90;;;11.60;99.90;;;;;;5054368;28;20060;-68
2021/03/28 12:23:47;;;;;;;1999.90;999.90;;;11.60;99.90;;;;;;5054637;28;20052;-68
2021/03/28 12:26:25;;;;;;;1999.90;999.90;;;11.60;99.90;;;;;;5054700;28;20052;-69
2021/03/28 12:29:03;;;;;;;1999.90;999.90;;;11.60;99.90;;;;;;5052508;28;20495;-69
2021/03/28 12:31:47;;;;;;;1999.90;999.90;;;11.60;99.90;;;;;;5045337;28;20135;-69
2021/03/28 12:34:38;;;;;;;1999.90;999.90;;;11.70;99.90;;;;;;5044175;28;20052;-69
2021/03/28 12:37:07;;;;;;;1999.90;999.90;;;11.70;99.90;;;;;;5051071;28;20045;-69
2021/03/28 12:39:38;;;;;;;1999.90;999.90;;;11.80;99.90;;;;;;5050235;28;20186;-68
2021/03/28 12:42:04;;;;;;;1999.90;999.90;;;11.90;99.90;;;;;;5045288;28;20051;-68
2021/03/28 12:44:34;;;;;;;1999.90;999.90;;;11.90;99.90;;;;;;5051074;28;20339;-69
2021/03/28 12:47:05;;;;;;;1999.90;999.90;;;12.00;99.90;;;;;;5051408;28;20079;-69
2021/03/28 12:49:50;;;;;;;1999.90;999.90;;;12.00;99.90;;;;;;5055007;28;20475;-68
2021/03/28 12:52:19;;;;;;;1999.90;999.90;;;12.00;99.90;;;;;;5052396;28;20517;-68
2021/03/28 12:54:52;;;;;;;1999.90;999.90;;;11.90;99.90;;;;;;5057018;28;20052;-69
2021/03/28 12:57:35;;;;;;;1999.90;999.90;;;11.90;99.90;;;;;;5046068;28;20051;-68
2021/03/28 13:00:13;;;;;;;1999.90;999.90;;;11.90;99.90;;;;;;5045918;28;20048;-69
2021/03/28 13:02:41;;;;;;;1999.90;999.90;;;11.90;99.90;;;;;;5048966;28;20047;-68
2021/03/28 13:05:29;;;;;;;1999.90;999.90;;;11.90;99.90;;;;;;5055643;28;20123;-69
2021/03/28 13:07:59;;;;;;;1999.90;999.90;;;11.90;99.90;;;;;;5058435;28;20052;-68
2021/03/28 13:10:25;;;;;;;;;;;11.90;99.90;;;;;;5059415;28;20175;-68
2021/03/28 13:13:22;;;;;;;1999.90;999.90;;;11.80;99.90;;;;;;5056296;28;19920;-69
2021/03/28 13:15:52;;;;;;;1999.90;999.90;;;11.80;99.90;;;;;;5058184;28;20072;-68
2021/03/28 13:18:23;;;;;;;1999.90;999.90;;;11.80;99.90;;;;;;5052526;28;20456;-69
2021/03/28 13:21:20;;;;;;;1999.90;999.90;;;11.80;99.90;;;;;;5058565;28;20052;-68
2021/03/28 13:23:46;;;;;;;1999.90;999.90;;;11.70;99.90;;;;;;5054613;28;20041;-69
2021/03/28 13:26:32;;;;;;;1999.90;999.90;;;11.70;99.90;;;;;;5057633;28;20078;-69
2021/03/28 13:29:13;;;;;;;1999.90;999.90;;;11.70;99.90;;;;;;5057533;28;20083;-68
2021/03/28 13:31:46;;;;;;;1999.90;999.90;;;11.70;99.90;;;;;;5053908;28;20059;-68
2021/03/28 13:34:12;;;;;;;1999.90;999.90;;;11.80;99.90;;;;;;5052909;28;20275;-69
2021/03/28 13:36:44;;;;;;;1999.90;999.90;;;11.80;99.90;;;;;;5054355;28;20040;-69
2021/03/28 13:39:18;;;;;;;1999.90;999.90;;;11.80;99.90;;;;;;5055740;28;22118;-69
2021/03/28 13:41:56;;;;;;;1999.90;999.90;;;11.80;99.90;;;;;;5048620;28;20045;-69
2021/03/28 13:44:29;;;;;;;1999.90;999.90;;;11.80;99.90;;;;;;5059729;28;20052;-69
2021/03/28 13:46:59;;;;;;;1999.90;999.90;;;11.80;99.90;;;;;;5055064;28;20049;-69
2021/03/28 13:49:57;;;;;;;1999.90;999.90;;;11.90;99.90;;;;;;5059420;28;20087;-69
2021/03/28 13:52:26;;;;;;;1999.90;999.90;;;11.90;99.90;;;;;;5051126;28;20056;-70
2021/03/28 13:55:02;;;;;;;;;;;11.90;99.90;;;;;;5059710;28;20150;-69